Firth, Nebraska
Current Conditions -  °F | °C
As of 4:35 AM on Sunday 21 Dec 2014 (Local Time) from KBIE Reporting Station
Broken Clouds Broken Clouds  
Wind Chill: 30°   Ceiling: 900
Heat Index: 38°   Visibility: 7mi
Dew Point: 37°   Wind: 12mph
Humidity: 95%   Direction: 180°S
Pressure: 29.93"   Gusts: NA
Location:  40.53°N, 96.61°W
Report Text: KBIE 211035Z AUTO 18010KT 7SM BKN009 03/03 A2993 RMK AO2 T00330026
Loading
Personal Weather Stations






























Interactive Weather Map New forecast layout! Learn more

10-Day Weather Forecast

Advertisements
Track Severe Weather on mobile